sensor_id;sensor_type;location;lat;lon;timestamp;P1;durP1;ratioP1;P2;durP2;ratioP2
39740;SDS011;25426;53.478;10.190;2023-08-06T11:11:24;7.53;;;6.78;;
39740;SDS011;25426;53.478;10.190;2023-08-06T11:13:55;7.80;;;7.00;;
39740;SDS011;25426;53.478;10.190;2023-08-06T11:16:26;8.20;;;7.40;;
39740;SDS011;25426;53.478;10.190;2023-08-06T11:18:57;7.63;;;6.93;;
39740;SDS011;25426;53.478;10.190;2023-08-06T11:21:30;7.13;;;6.43;;
39740;SDS011;25426;53.478;10.190;2023-08-06T11:24:01;7.87;;;7.10;;
39740;SDS011;25426;53.478;10.190;2023-08-06T12:18:47;7.47;;;6.72;;
39740;SDS011;25426;53.478;10.190;2023-08-06T12:21:19;8.77;;;7.38;;
39740;SDS011;25426;53.478;10.190;2023-08-06T12:23:50;7.70;;;6.85;;
39740;SDS011;25426;53.478;10.190;2023-08-06T12:26:21;8.05;;;7.25;;
39740;SDS011;25426;53.478;10.190;2023-08-06T12:28:52;7.95;;;7.25;;
39740;SDS011;25426;53.478;10.190;2023-08-06T12:31:25;7.65;;;6.95;;
39740;SDS011;25426;53.478;10.190;2023-08-06T12:33:56;7.88;;;6.63;;
39740;SDS011;25426;53.478;10.190;2023-08-06T12:36:27;7.40;;;6.68;;
39740;SDS011;25426;53.478;10.190;2023-08-06T12:39:00;7.22;;;6.53;;
39740;SDS011;25426;53.478;10.190;2023-08-06T12:41:31;6.97;;;6.28;;
39740;SDS011;25426;53.478;10.190;2023-08-06T12:44:02;7.00;;;6.40;;
39740;SDS011;25426;53.478;10.190;2023-08-06T12:46:33;6.90;;;6.30;;
39740;SDS011;25426;53.478;10.190;2023-08-06T12:49:04;6.80;;;6.10;;
39740;SDS011;25426;53.478;10.190;2023-08-06T12:51:35;6.60;;;6.00;;
39740;SDS011;25426;53.478;10.190;2023-08-06T12:54:06;6.13;;;5.57;;
39740;SDS011;25426;53.478;10.190;2023-08-06T12:56:37;6.22;;;5.63;;
39740;SDS011;25426;53.478;10.190;2023-08-06T12:59:08;6.15;;;5.50;;
39740;SDS011;25426;53.478;10.190;2023-08-06T13:01:39;5.45;;;4.95;;
39740;SDS011;25426;53.478;10.190;2023-08-06T13:04:14;5.05;;;4.65;;
39740;SDS011;25426;53.478;10.190;2023-08-06T13:06:45;6.28;;;4.88;;
39740;SDS011;25426;53.478;10.190;2023-08-06T13:09:19;5.85;;;5.32;;
39740;SDS011;25426;53.478;10.190;2023-08-06T13:11:50;5.10;;;4.70;;
39740;SDS011;25426;53.478;10.190;2023-08-06T13:14:21;5.32;;;4.85;;
39740;SDS011;25426;53.478;10.190;2023-08-06T13:16:52;5.50;;;4.77;;
39740;SDS011;25426;53.478;10.190;2023-08-06T13:19:23;5.63;;;5.13;;
39740;SDS011;25426;53.478;10.190;2023-08-06T13:22:01;5.63;;;5.13;;
39740;SDS011;25426;53.478;10.190;2023-08-06T13:24:35;6.50;;;5.60;;
39740;SDS011;25426;53.478;10.190;2023-08-06T13:27:06;5.60;;;5.03;;
39740;SDS011;25426;53.478;10.190;2023-08-06T13:29:39;5.72;;;5.18;;
39740;SDS011;25426;53.478;10.190;2023-08-06T13:32:10;6.45;;;5.68;;
39740;SDS011;25426;53.478;10.190;2023-08-06T13:34:41;6.32;;;5.72;;
39740;SDS011;25426;53.478;10.190;2023-08-06T13:37:12;6.30;;;5.47;;
39740;SDS011;25426;53.478;10.190;2023-08-06T13:39:43;6.80;;;5.85;;
39740;SDS011;25426;53.478;10.190;2023-08-06T13:42:14;6.50;;;5.43;;
39740;SDS011;25426;53.478;10.190;2023-08-06T13:44:45;7.25;;;5.95;;
39740;SDS011;25426;53.478;10.190;2023-08-06T13:47:16;6.55;;;5.68;;
39740;SDS011;25426;53.478;10.190;2023-08-06T13:49:47;6.05;;;5.45;;
39740;SDS011;25426;53.478;10.190;2023-08-06T13:52:19;6.82;;;6.13;;
39740;SDS011;25426;53.478;10.190;2023-08-06T13:54:54;7.30;;;6.18;;
39740;SDS011;25426;53.478;10.190;2023-08-06T13:57:26;8.50;;;6.32;;
39740;SDS011;25426;53.478;10.190;2023-08-06T13:59:57;7.28;;;5.95;;
39740;SDS011;25426;53.478;10.190;2023-08-06T14:02:29;6.72;;;5.70;;
39740;SDS011;25426;53.478;10.190;2023-08-06T14:05:00;6.80;;;5.90;;
39740;SDS011;25426;53.478;10.190;2023-08-06T14:07:31;7.00;;;5.90;;
39740;SDS011;25426;53.478;10.190;2023-08-06T14:10:02;6.93;;;6.15;;
39740;SDS011;25426;53.478;10.190;2023-08-06T14:12:33;6.63;;;5.93;;
39740;SDS011;25426;53.478;10.190;2023-08-06T14:15:04;6.27;;;5.67;;
39740;SDS011;25426;53.478;10.190;2023-08-06T14:17:36;6.90;;;6.18;;
39740;SDS011;25426;53.478;10.190;2023-08-06T14:20:07;6.50;;;5.90;;
39740;SDS011;25426;53.478;10.190;2023-08-06T14:22:41;6.77;;;5.77;;
39740;SDS011;25426;53.478;10.190;2023-08-06T14:25:12;6.20;;;5.38;;
39740;SDS011;25426;53.478;10.190;2023-08-06T14:27:43;6.50;;;5.33;;
39740;SDS011;25426;53.478;10.190;2023-08-06T14:30:14;6.28;;;5.30;;
39740;SDS011;25426;53.478;10.190;2023-08-06T14:32:45;7.63;;;5.40;;
39740;SDS011;25426;53.478;10.190;2023-08-06T14:35:16;8.10;;;5.40;;
39740;SDS011;25426;53.478;10.190;2023-08-06T14:37:47;6.53;;;4.85;;
39740;SDS011;25426;53.478;10.190;2023-08-06T14:40:18;5.72;;;4.63;;
39740;SDS011;25426;53.478;10.190;2023-08-06T14:42:49;6.75;;;4.75;;
39740;SDS011;25426;53.478;10.190;2023-08-06T14:45:20;5.60;;;4.30;;
39740;SDS011;25426;53.478;10.190;2023-08-06T14:47:51;5.68;;;3.67;;
39740;SDS011;25426;53.478;10.190;2023-08-06T14:50:22;5.80;;;3.85;;
39740;SDS011;25426;53.478;10.190;2023-08-06T14:52:53;6.32;;;4.40;;
39740;SDS011;25426;53.478;10.190;2023-08-06T14:55:24;7.30;;;4.78;;
39740;SDS011;25426;53.478;10.190;2023-08-06T14:57:56;5.47;;;4.72;;
39740;SDS011;25426;53.478;10.190;2023-08-06T15:00:27;6.30;;;4.50;;
39740;SDS011;25426;53.478;10.190;2023-08-06T15:02:58;5.70;;;4.60;;
39740;SDS011;25426;53.478;10.190;2023-08-06T15:05:29;7.80;;;5.07;;
39740;SDS011;25426;53.478;10.190;2023-08-06T15:08:00;6.13;;;4.80;;
39740;SDS011;25426;53.478;10.190;2023-08-06T15:10:31;6.28;;;4.70;;
39740;SDS011;25426;53.478;10.190;2023-08-06T15:13:02;7.63;;;4.53;;
